sensor_id;sensor_type;location;lat;lon;timestamp;temperature;humidity
65396;HTU21D;52004;45.136;39.010;2023-07-31T00:01:55;22.57;58.64
65396;HTU21D;52004;45.136;39.010;2023-07-31T00:04:21;22.54;58.68
65396;HTU21D;52004;45.136;39.010;2023-07-31T00:06:46;22.51;58.74
65396;HTU21D;52004;45.136;39.010;2023-07-31T00:09:12;22.47;58.80
65396;HTU21D;52004;45.136;39.010;2023-07-31T00:11:38;22.44;58.86
65396;HTU21D;52004;45.136;39.010;2023-07-31T00:14:04;22.44;58.89
65396;HTU21D;52004;45.136;39.010;2023-07-31T00:16:30;22.43;58.90
65396;HTU21D;52004;45.136;39.010;2023-07-31T00:18:56;22.43;58.89
65396;HTU21D;52004;45.136;39.010;2023-07-31T00:21:21;22.41;58.90
65396;HTU21D;52004;45.136;39.010;2023-07-31T00:23:47;22.39;58.93
65396;HTU21D;52004;45.136;39.010;2023-07-31T00:26:13;22.37;58.94
65396;HTU21D;52004;45.136;39.010;2023-07-31T00:28:39;22.36;58.96
65396;HTU21D;52004;45.136;39.010;2023-07-31T00:31:05;22.33;58.97
65396;HTU21D;52004;45.136;39.010;2023-07-31T00:33:31;22.29;59.01
65396;HTU21D;52004;45.136;39.010;2023-07-31T00:35:57;22.27;59.05
65396;HTU21D;52004;45.136;39.010;2023-07-31T00:38:25;22.24;59.06
65396;HTU21D;52004;45.136;39.010;2023-07-31T00:40:51;22.22;59.11
65396;HTU21D;52004;45.136;39.010;2023-07-31T00:43:16;22.19;59.16
65396;HTU21D;52004;45.136;39.010;2023-07-31T00:45:42;22.16;59.17
65396;HTU21D;52004;45.136;39.010;2023-07-31T00:48:08;22.13;59.20
65396;HTU21D;52004;45.136;39.010;2023-07-31T00:50:34;22.11;59.23
65396;HTU21D;52004;45.136;39.010;2023-07-31T00:53:00;22.07;59.27
65396;HTU21D;52004;45.136;39.010;2023-07-31T00:55:26;22.06;59.31
65396;HTU21D;52004;45.136;39.010;2023-07-31T00:57:52;22.03;59.32
65396;HTU21D;52004;45.136;39.010;2023-07-31T01:00:21;22.01;59.35
65396;HTU21D;52004;45.136;39.010;2023-07-31T01:02:47;21.95;59.41
65396;HTU21D;52004;45.136;39.010;2023-07-31T01:05:13;21.92;59.44
65396;HTU21D;52004;45.136;39.010;2023-07-31T01:10:11;21.84;59.52
65396;HTU21D;52004;45.136;39.010;2023-07-31T01:12:39;21.82;59.54
65396;HTU21D;52004;45.136;39.010;2023-07-31T01:15:06;21.78;59.57
65396;HTU21D;52004;45.136;39.010;2023-07-31T01:17:33;21.76;59.60
65396;HTU21D;52004;45.136;39.010;2023-07-31T01:20:01;21.70;59.62
65396;HTU21D;52004;45.136;39.010;2023-07-31T01:27:23;21.59;59.76
65396;HTU21D;52004;45.136;39.010;2023-07-31T01:29:59;21.57;59.80
65396;HTU21D;52004;45.136;39.010;2023-07-31T01:32:26;21.53;59.83
65396;HTU21D;52004;45.136;39.010;2023-07-31T01:34:53;21.51;59.84
65396;HTU21D;52004;45.136;39.010;2023-07-31T01:37:19;21.50;59.84
65396;HTU21D;52004;45.136;39.010;2023-07-31T01:39:45;21.47;59.88
65396;HTU21D;52004;45.136;39.010;2023-07-31T01:42:11;21.45;59.90
65396;HTU21D;52004;45.136;39.010;2023-07-31T01:44:36;21.43;59.91
65396;HTU21D;52004;45.136;39.010;2023-07-31T01:47:04;21.40;59.92
65396;HTU21D;52004;45.136;39.010;2023-07-31T01:49:30;21.38;59.94
65396;HTU21D;52004;45.136;39.010;2023-07-31T01:51:56;21.37;59.96
65396;HTU21D;52004;45.136;39.010;2023-07-31T01:54:22;21.35;59.95
65396;HTU21D;52004;45.136;39.010;2023-07-31T01:56:48;21.29;60.01
65396;HTU21D;52004;45.136;39.010;2023-07-31T01:59:14;21.27;60.11
65396;HTU21D;52004;45.136;39.010;2023-07-31T02:01:39;21.23;60.15
65396;HTU21D;52004;45.136;39.010;2023-07-31T02:04:05;21.23;60.16
65396;HTU21D;52004;45.136;39.010;2023-07-31T02:06:32;21.19;60.15
65396;HTU21D;52004;45.136;39.010;2023-07-31T02:08:58;21.17;60.22
65396;HTU21D;52004;45.136;39.010;2023-07-31T02:11:24;21.14;60.27
65396;HTU21D;52004;45.136;39.010;2023-07-31T02:13:49;21.11;60.30
65396;HTU21D;52004;45.136;39.010;2023-07-31T02:16:15;21.08;60.36
65396;HTU21D;52004;45.136;39.010;2023-07-31T02:18:41;21.08;60.40
65396;HTU21D;52004;45.136;39.010;2023-07-31T02:21:07;21.06;60.40
65396;HTU21D;52004;45.136;39.010;2023-07-31T02:23:33;21.06;60.40
65396;HTU21D;52004;45.136;39.010;2023-07-31T02:25:59;21.04;60.44
65396;HTU21D;52004;45.136;39.010;2023-07-31T02:28:24;21.04;60.46
65396;HTU21D;52004;45.136;39.010;2023-07-31T02:30:50;21.01;60.48
65396;HTU21D;52004;45.136;39.010;2023-07-31T02:33:17;20.99;60.55
65396;HTU21D;52004;45.136;39.010;2023-07-31T02:35:43;20.99;60.59
65396;HTU21D;52004;45.136;39.010;2023-07-31T02:38:09;20.99;60.62
65396;HTU21D;52004;45.136;39.010;2023-07-31T02:40:35;20.99;60.64
65396;HTU21D;52004;45.136;39.010;2023-07-31T02:43:00;21.01;60.66
65396;HTU21D;52004;45.136;39.010;2023-07-31T02:45:26;21.03;60.63
65396;HTU21D;52004;45.136;39.010;2023-07-31T02:47:52;21.03;60.64
65396;HTU21D;52004;45.136;39.010;2023-07-31T02:50:18;21.04;60.67
65396;HTU21D;52004;45.136;39.010;2023-07-31T02:52:44;21.06;60.70
65396;HTU21D;52004;45.136;39.010;2023-07-31T02:55:10;21.08;60.68
65396;HTU21D;52004;45.136;39.010;2023-07-31T02:57:36;21.11;60.71
65396;HTU21D;52004;45.136;39.010;2023-07-31T03:00:02;21.14;60.75
65396;HTU21D;52004;45.136;39.010;2023-07-31T03:02:31;21.16;60.74
65396;HTU21D;52004;45.136;39.010;2023-07-31T03:04:58;21.18;60.76
65396;HTU21D;52004;45.136;39.010;2023-07-31T03:07:24;21.21;60.77
65396;HTU21D;52004;45.136;39.010;2023-07-31T03:09:49;21.24;60.76
65396;HTU21D;52004;45.136;39.010;2023-07-31T03:12:15;21.28;60.76
65396;HTU21D;52004;45.136;39.010;2023-07-31T03:14:41;21.28;60.80
65396;HTU21D;52004;45.136;39.010;2023-07-31T03:17:07;21.32;60.82
65396;HTU21D;52004;45.136;39.010;2023-07-31T03:19:33;21.36;60.83
65396;HTU21D;52004;45.136;39.010;2023-07-31T03:21:59;21.42;60.80
65396;HTU21D;52004;45.136;39.010;2023-07-31T03:24:25;21.44;60.81
65396;HTU21D;52004;45.136;39.010;2023-07-31T03:26:51;21.49;60.82
65396;HTU21D;52004;45.136;39.010;2023-07-31T03:29:17;21.53;60.83
65396;HTU21D;52004;45.136;39.010;2023-07-31T03:31:43;21.60;60.81
65396;HTU21D;52004;45.136;39.010;2023-07-31T03:34:09;21.66;60.78
65396;HTU21D;52004;45.136;39.010;2023-07-31T03:36:35;21.72;60.75
65396;HTU21D;52004;45.136;39.010;2023-07-31T03:39:00;21.78;60.75
65396;HTU21D;52004;45.136;39.010;2023-07-31T03:41:26;21.87;60.72
65396;HTU21D;52004;45.136;39.010;2023-07-31T03:43:52;21.92;60.69
65396;HTU21D;52004;45.136;39.010;2023-07-31T03:46:18;21.98;60.66
65396;HTU21D;52004;45.136;39.010;2023-07-31T03:48:44;22.03;60.64
65396;HTU21D;52004;45.136;39.010;2023-07-31T03:51:10;22.10;60.65
65396;HTU21D;52004;45.136;39.010;2023-07-31T03:53:36;22.18;60.62
65396;HTU21D;52004;45.136;39.010;2023-07-31T03:56:02;22.25;60.62
65396;HTU21D;52004;45.136;39.010;2023-07-31T03:58:28;22.34;60.60
65396;HTU21D;52004;45.136;39.010;2023-07-31T04:00:53;22.43;60.54
65396;HTU21D;52004;45.136;39.010;2023-07-31T04:03:20;22.50;60.49
65396;HTU21D;52004;45.136;39.010;2023-07-31T04:05:45;22.58;60.44
65396;HTU21D;52004;45.136;39.010;2023-07-31T04:08:11;22.62;60.41
65396;HTU21D;52004;45.136;39.010;2023-07-31T04:10:37;22.69;60.38
65396;HTU21D;52004;45.136;39.010;2023-07-31T04:13:03;22.76;60.34
65396;HTU21D;52004;45.136;39.010;2023-07-31T04:15:29;22.82;60.32
65396;HTU21D;52004;45.136;39.010;2023-07-31T04:17:55;22.91;60.29
65396;HTU21D;52004;45.136;39.010;2023-07-31T04:20:20;22.98;60.28
65396;HTU21D;52004;45.136;39.010;2023-07-31T04:22:46;23.08;60.25
65396;HTU21D;52004;45.136;39.010;2023-07-31T04:25:12;23.17;60.20
65396;HTU21D;52004;45.136;39.010;2023-07-31T04:27:38;23.25;60.13
65396;HTU21D;52004;45.136;39.010;2023-07-31T04:30:04;23.35;60.11
65396;HTU21D;52004;45.136;39.010;2023-07-31T04:32:30;23.44;60.03
65396;HTU21D;52004;45.136;39.010;2023-07-31T04:34:56;23.52;59.98
65396;HTU21D;52004;45.136;39.010;2023-07-31T04:37:22;23.59;59.95
65396;HTU21D;52004;45.136;39.010;2023-07-31T04:39:48;23.67;59.93
65396;HTU21D;52004;45.136;39.010;2023-07-31T04:42:14;23.74;59.90
65396;HTU21D;52004;45.136;39.010;2023-07-31T04:44:40;23.85;59.88
65396;HTU21D;52004;45.136;39.010;2023-07-31T04:47:05;23.91;59.84
65396;HTU21D;52004;45.136;39.010;2023-07-31T04:49:32;23.99;59.83
65396;HTU21D;52004;45.136;39.010;2023-07-31T04:51:58;24.09;59.83
65396;HTU21D;52004;45.136;39.010;2023-07-31T04:54:24;24.19;59.83
65396;HTU21D;52004;45.136;39.010;2023-07-31T04:56:49;24.30;59.78
65396;HTU21D;52004;45.136;39.010;2023-07-31T04:59:15;24.42;59.77
65396;HTU21D;52004;45.136;39.010;2023-07-31T05:01:41;24.51;59.71
65396;HTU21D;52004;45.136;39.010;2023-07-31T05:04:08;24.61;59.62
65396;HTU21D;52004;45.136;39.010;2023-07-31T05:06:34;24.71;59.62
65396;HTU21D;52004;45.136;39.010;2023-07-31T05:09:00;24.80;59.65
65396;HTU21D;52004;45.136;39.010;2023-07-31T05:11:25;24.93;59.67
65396;HTU21D;52004;45.136;39.010;2023-07-31T05:13:51;25.05;59.57
65396;HTU21D;52004;45.136;39.010;2023-07-31T05:16:17;25.13;59.56
65396;HTU21D;52004;45.136;39.010;2023-07-31T05:18:43;25.24;59.55
65396;HTU21D;52004;45.136;39.010;2023-07-31T05:21:09;25.34;59.50
65396;HTU21D;52004;45.136;39.010;2023-07-31T05:23:34;25.44;59.33
65396;HTU21D;52004;45.136;39.010;2023-07-31T05:26:04;25.50;59.25
65396;HTU21D;52004;45.136;39.010;2023-07-31T05:28:30;25.56;59.23
65396;HTU21D;52004;45.136;39.010;2023-07-31T05:31:00;25.62;59.22
65396;HTU21D;52004;45.136;39.010;2023-07-31T05:33:26;25.71;59.20
65396;HTU21D;52004;45.136;39.010;2023-07-31T05:35:52;25.80;59.24
65396;HTU21D;52004;45.136;39.010;2023-07-31T05:38:18;0.00;59.25
65396;HTU21D;52004;45.136;39.010;2023-07-31T05:40:44;26.03;59.22
65396;HTU21D;52004;45.136;39.010;2023-07-31T05:43:09;26.15;59.16
65396;HTU21D;52004;45.136;39.010;2023-07-31T05:45:35;26.25;59.13
65396;HTU21D;52004;45.136;39.010;2023-07-31T05:48:02;26.36;59.03
65396;HTU21D;52004;45.136;39.010;2023-07-31T05:50:30;26.46;59.00
65396;HTU21D;52004;45.136;39.010;2023-07-31T05:52:55;26.56;58.93
65396;HTU21D;52004;45.136;39.010;2023-07-31T05:55:21;0.00;58.81
65396;HTU21D;52004;45.136;39.010;2023-07-31T05:57:47;26.75;58.81
65396;HTU21D;52004;45.136;39.010;2023-07-31T06:00:13;26.84;58.83
65396;HTU21D;52004;45.136;39.010;2023-07-31T06:02:39;26.94;58.74
65396;HTU21D;52004;45.136;39.010;2023-07-31T06:05:05;27.05;58.66
65396;HTU21D;52004;45.136;39.010;2023-07-31T06:07:32;27.15;58.60
65396;HTU21D;52004;45.136;39.010;2023-07-31T06:09:58;27.26;58.48
65396;HTU21D;52004;45.136;39.010;2023-07-31T06:12:29;27.35;58.38
65396;HTU21D;52004;45.136;39.010;2023-07-31T06:14:55;27.41;58.33
65396;HTU21D;52004;45.136;39.010;2023-07-31T06:17:20;27.51;58.30
65396;HTU21D;52004;45.136;39.010;2023-07-31T06:19:47;27.58;58.25
65396;HTU21D;52004;45.136;39.010;2023-07-31T06:22:12;27.69;58.22
65396;HTU21D;52004;45.136;39.010;2023-07-31T06:24:39;0.00;58.12
65396;HTU21D;52004;45.136;39.010;2023-07-31T06:27:05;27.87;58.03
65396;HTU21D;52004;45.136;39.010;2023-07-31T06:29:31;27.96;57.95
65396;HTU21D;52004;45.136;39.010;2023-07-31T06:31:57;28.05;57.93
65396;HTU21D;52004;45.136;39.010;2023-07-31T06:34:23;28.18;57.93
65396;HTU21D;52004;45.136;39.010;2023-07-31T06:36:49;28.29;57.76
65396;HTU21D;52004;45.136;39.010;2023-07-31T06:39:15;28.39;57.67
65396;HTU21D;52004;45.136;39.010;2023-07-31T06:41:41;28.48;57.51
65396;HTU21D;52004;45.136;39.010;2023-07-31T06:44:10;28.56;57.46
65396;HTU21D;52004;45.136;39.010;2023-07-31T06:46:36;28.64;57.40
65396;HTU21D;52004;45.136;39.010;2023-07-31T06:49:02;28.73;57.40
65396;HTU21D;52004;45.136;39.010;2023-07-31T06:51:28;0.00;57.32
65396;HTU21D;52004;45.136;39.010;2023-07-31T06:53:53;28.91;57.27
65396;HTU21D;52004;45.136;39.010;2023-07-31T06:56:20;29.02;57.23
65396;HTU21D;52004;45.136;39.010;2023-07-31T06:58:46;29.14;57.11
65396;HTU21D;52004;45.136;39.010;2023-07-31T07:01:12;29.21;56.99
65396;HTU21D;52004;45.136;39.010;2023-07-31T07:03:38;29.28;56.81
65396;HTU21D;52004;45.136;39.010;2023-07-31T07:06:04;29.36;56.82
65396;HTU21D;52004;45.136;39.010;2023-07-31T07:08:30;29.44;56.75
65396;HTU21D;52004;45.136;39.010;2023-07-31T07:10:56;0.00;56.54
65396;HTU21D;52004;45.136;39.010;2023-07-31T07:13:22;29.58;56.48
65396;HTU21D;52004;45.136;39.010;2023-07-31T07:15:48;29.65;56.45
65396;HTU21D;52004;45.136;39.010;2023-07-31T07:18:14;29.73;56.31
65396;HTU21D;52004;45.136;39.010;2023-07-31T07:20:41;29.83;56.22
65396;HTU21D;52004;45.136;39.010;2023-07-31T07:23:11;29.92;56.13
65396;HTU21D;52004;45.136;39.010;2023-07-31T07:25:37;30.01;56.07
65396;HTU21D;52004;45.136;39.010;2023-07-31T07:28:03;0.00;56.00
65396;HTU21D;52004;45.136;39.010;2023-07-31T07:30:29;30.21;56.00
65396;HTU21D;52004;45.136;39.010;2023-07-31T07:32:55;30.32;55.94
65396;HTU21D;52004;45.136;39.010;2023-07-31T07:35:21;30.41;55.74
65396;HTU21D;52004;45.136;39.010;2023-07-31T07:37:50;0.00;55.64
65396;HTU21D;52004;45.136;39.010;2023-07-31T07:40:17;30.56;55.56
65396;HTU21D;52004;45.136;39.010;2023-07-31T07:42:43;30.62;55.43
65396;HTU21D;52004;45.136;39.010;2023-07-31T07:45:09;30.71;55.39
65396;HTU21D;52004;45.136;39.010;2023-07-31T07:47:35;30.78;55.25
65396;HTU21D;52004;45.136;39.010;2023-07-31T07:50:01;30.84;55.24
65396;HTU21D;52004;45.136;39.010;2023-07-31T07:52:27;30.94;55.21
65396;HTU21D;52004;45.136;39.010;2023-07-31T07:54:53;31.04;55.12
65396;HTU21D;52004;45.136;39.010;2023-07-31T07:57:19;31.11;55.07
65396;HTU21D;52004;45.136;39.010;2023-07-31T07:59:45;31.20;54.91
65396;HTU21D;52004;45.136;39.010;2023-07-31T08:02:11;31.26;54.77
65396;HTU21D;52004;45.136;39.010;2023-07-31T08:04:36;31.31;54.71
65396;HTU21D;52004;45.136;39.010;2023-07-31T08:07:02;31.39;54.73
65396;HTU21D;52004;45.136;39.010;2023-07-31T08:09:28;31.48;54.72
65396;HTU21D;52004;45.136;39.010;2023-07-31T08:11:54;31.57;54.62
65396;HTU21D;52004;45.136;39.010;2023-07-31T08:14:22;31.68;54.52
65396;HTU21D;52004;45.136;39.010;2023-07-31T08:16:48;31.78;54.42
65396;HTU21D;52004;45.136;39.010;2023-07-31T08:19:14;31.85;54.29
65396;HTU21D;52004;45.136;39.010;2023-07-31T08:21:40;31.93;54.22
65396;HTU21D;52004;45.136;39.010;2023-07-31T08:24:06;32.00;54.13
65396;HTU21D;52004;45.136;39.010;2023-07-31T08:26:33;32.07;53.97
65396;HTU21D;52004;45.136;39.010;2023-07-31T08:28:59;32.12;53.91
65396;HTU21D;52004;45.136;39.010;2023-07-31T08:31:25;32.16;53.79
65396;HTU21D;52004;45.136;39.010;2023-07-31T08:33:50;32.25;53.68
65396;HTU21D;52004;45.136;39.010;2023-07-31T08:36:16;32.30;53.65
65396;HTU21D;52004;45.136;39.010;2023-07-31T08:38:42;32.37;53.57
65396;HTU21D;52004;45.136;39.010;2023-07-31T08:41:08;32.42;53.53
65396;HTU21D;52004;45.136;39.010;2023-07-31T08:43:34;32.49;53.50
65396;HTU21D;52004;45.136;39.010;2023-07-31T08:46:01;32.59;53.40
65396;HTU21D;52004;45.136;39.010;2023-07-31T08:48:27;32.63;53.23
65396;HTU21D;52004;45.136;39.010;2023-07-31T08:50:54;32.69;53.13
65396;HTU21D;52004;45.136;39.010;2023-07-31T08:53:20;32.75;53.12
65396;HTU21D;52004;45.136;39.010;2023-07-31T08:55:46;32.83;53.03
65396;HTU21D;52004;45.136;39.010;2023-07-31T08:58:12;32.89;52.94
65396;HTU21D;52004;45.136;39.010;2023-07-31T09:00:39;32.96;52.90
65396;HTU21D;52004;45.136;39.010;2023-07-31T09:03:09;33.01;52.72
65396;HTU21D;52004;45.136;39.010;2023-07-31T09:05:35;33.05;52.75
65396;HTU21D;52004;45.136;39.010;2023-07-31T09:08:02;33.13;52.65
65396;HTU21D;52004;45.136;39.010;2023-07-31T09:10:28;33.20;52.62
65396;HTU21D;52004;45.136;39.010;2023-07-31T09:12:54;33.29;52.51
65396;HTU21D;52004;45.136;39.010;2023-07-31T09:15:20;33.36;52.44
65396;HTU21D;52004;45.136;39.010;2023-07-31T09:17:47;33.43;52.33
65396;HTU21D;52004;45.136;39.010;2023-07-31T09:20:17;33.49;52.20
65396;HTU21D;52004;45.136;39.010;2023-07-31T09:22:43;33.53;52.15
65396;HTU21D;52004;45.136;39.010;2023-07-31T09:25:22;33.60;52.08
65396;HTU21D;52004;45.136;39.010;2023-07-31T09:27:50;33.67;52.01
65396;HTU21D;52004;45.136;39.010;2023-07-31T09:30:16;33.75;51.91
65396;HTU21D;52004;45.136;39.010;2023-07-31T09:32:43;33.79;51.66
65396;HTU21D;52004;45.136;39.010;2023-07-31T09:37:41;33.81;51.62
65396;HTU21D;52004;45.136;39.010;2023-07-31T09:40:07;33.90;51.60
65396;HTU21D;52004;45.136;39.010;2023-07-31T09:42:33;33.99;51.50
65396;HTU21D;52004;45.136;39.010;2023-07-31T09:45:09;34.07;51.34
65396;HTU21D;52004;45.136;39.010;2023-07-31T09:47:35;34.12;51.30
65396;HTU21D;52004;45.136;39.010;2023-07-31T09:50:01;34.18;51.19
65396;HTU21D;52004;45.136;39.010;2023-07-31T09:52:27;34.23;51.17
65396;HTU21D;52004;45.136;39.010;2023-07-31T09:54:53;34.27;51.08
65396;HTU21D;52004;45.136;39.010;2023-07-31T09:57:19;34.35;50.95
65396;HTU21D;52004;45.136;39.010;2023-07-31T09:59:47;34.39;50.92
65396;HTU21D;52004;45.136;39.010;2023-07-31T10:02:15;34.47;50.80
65396;HTU21D;52004;45.136;39.010;2023-07-31T10:04:41;0.00;50.77
65396;HTU21D;52004;45.136;39.010;2023-07-31T10:07:08;34.59;50.74
65396;HTU21D;52004;45.136;39.010;2023-07-31T10:09:33;34.65;50.56
65396;HTU21D;52004;45.136;39.010;2023-07-31T10:12:00;0.00;50.41
65396;HTU21D;52004;45.136;39.010;2023-07-31T10:14:26;34.67;50.36
65396;HTU21D;52004;45.136;39.010;2023-07-31T10:16:53;34.70;50.34
65396;HTU21D;52004;45.136;39.010;2023-07-31T10:19:20;34.75;50.27
65396;HTU21D;52004;45.136;39.010;2023-07-31T10:21:46;34.78;50.24
65396;HTU21D;52004;45.136;39.010;2023-07-31T10:24:14;34.81;50.21
65396;HTU21D;52004;45.136;39.010;2023-07-31T10:26:40;34.88;50.18
65396;HTU21D;52004;45.136;39.010;2023-07-31T10:29:06;34.92;50.02
65396;HTU21D;52004;45.136;39.010;2023-07-31T10:31:33;34.93;49.73
65396;HTU21D;52004;45.136;39.010;2023-07-31T10:33:59;34.88;49.62
65396;HTU21D;52004;45.136;39.010;2023-07-31T10:36:26;34.86;49.78
65396;HTU21D;52004;45.136;39.010;2023-07-31T10:38:52;0.00;49.83
65396;HTU21D;52004;45.136;39.010;2023-07-31T10:41:18;34.99;49.75
65396;HTU21D;52004;45.136;39.010;2023-07-31T10:43:47;35.08;49.72
65396;HTU21D;52004;45.136;39.010;2023-07-31T10:46:13;35.16;49.63
65396;HTU21D;52004;45.136;39.010;2023-07-31T10:48:40;35.24;49.50
65396;HTU21D;52004;45.136;39.010;2023-07-31T10:51:09;35.28;49.38
65396;HTU21D;52004;45.136;39.010;2023-07-31T10:53:36;35.31;49.40
65396;HTU21D;52004;45.136;39.010;2023-07-31T10:56:03;35.38;49.34
65396;HTU21D;52004;45.136;39.010;2023-07-31T10:58:30;35.43;49.31
65396;HTU21D;52004;45.136;39.010;2023-07-31T11:01:01;35.49;49.26
65396;HTU21D;52004;45.136;39.010;2023-07-31T11:06:07;35.57;49.11
65396;HTU21D;52004;45.136;39.010;2023-07-31T11:08:34;35.64;49.08
65396;HTU21D;52004;45.136;39.010;2023-07-31T11:13:34;35.72;48.86
65396;HTU21D;52004;45.136;39.010;2023-07-31T11:16:00;35.72;48.76
65396;HTU21D;52004;45.136;39.010;2023-07-31T11:18:26;35.73;48.68
65396;HTU21D;52004;45.136;39.010;2023-07-31T11:20:52;35.71;48.58
65396;HTU21D;52004;45.136;39.010;2023-07-31T11:23:19;35.69;48.46
65396;HTU21D;52004;45.136;39.010;2023-07-31T11:25:45;35.67;48.49
65396;HTU21D;52004;45.136;39.010;2023-07-31T11:28:15;35.66;48.43
65396;HTU21D;52004;45.136;39.010;2023-07-31T11:30:41;35.65;48.39
65396;HTU21D;52004;45.136;39.010;2023-07-31T11:33:08;35.63;48.40
65396;HTU21D;52004;45.136;39.010;2023-07-31T11:35:35;35.60;48.34
65396;HTU21D;52004;45.136;39.010;2023-07-31T11:38:02;35.60;48.39
65396;HTU21D;52004;45.136;39.010;2023-07-31T11:40:28;35.65;48.40
65396;HTU21D;52004;45.136;39.010;2023-07-31T11:42:58;35.70;48.22
65396;HTU21D;52004;45.136;39.010;2023-07-31T11:45:25;35.72;48.19
65396;HTU21D;52004;45.136;39.010;2023-07-31T11:47:52;0.00;48.02
65396;HTU21D;52004;45.136;39.010;2023-07-31T11:50:18;35.54;48.00
65396;HTU21D;52004;45.136;39.010;2023-07-31T11:52:44;35.49;48.11
65396;HTU21D;52004;45.136;39.010;2023-07-31T11:55:10;35.50;48.11
65396;HTU21D;52004;45.136;39.010;2023-07-31T11:57:37;35.50;48.01
65396;HTU21D;52004;45.136;39.010;2023-07-31T12:00:04;35.50;48.05
65396;HTU21D;52004;45.136;39.010;2023-07-31T12:02:31;35.49;47.86
65396;HTU21D;52004;45.136;39.010;2023-07-31T12:04:57;35.41;47.82
65396;HTU21D;52004;45.136;39.010;2023-07-31T12:07:23;35.38;47.89
65396;HTU21D;52004;45.136;39.010;2023-07-31T12:09:50;35.39;47.92
65396;HTU21D;52004;45.136;39.010;2023-07-31T12:12:23;35.44;47.88
65396;HTU21D;52004;45.136;39.010;2023-07-31T12:14:49;35.48;47.86
65396;HTU21D;52004;45.136;39.010;2023-07-31T12:17:17;35.49;47.65
65396;HTU21D;52004;45.136;39.010;2023-07-31T12:19:43;35.45;47.67
65396;HTU21D;52004;45.136;39.010;2023-07-31T12:22:12;35.49;47.73
65396;HTU21D;52004;45.136;39.010;2023-07-31T12:24:42;35.54;47.70
65396;HTU21D;52004;45.136;39.010;2023-07-31T12:27:13;35.53;47.51
65396;HTU21D;52004;45.136;39.010;2023-07-31T12:29:39;35.48;47.47
65396;HTU21D;52004;45.136;39.010;2023-07-31T12:32:24;35.45;47.46
65396;HTU21D;52004;45.136;39.010;2023-07-31T12:34:58;35.41;47.38
65396;HTU21D;52004;45.136;39.010;2023-07-31T12:37:24;35.41;47.37
65396;HTU21D;52004;45.136;39.010;2023-07-31T12:39:50;35.39;47.31
65396;HTU21D;52004;45.136;39.010;2023-07-31T12:42:17;35.38;47.20
65396;HTU21D;52004;45.136;39.010;2023-07-31T12:44:43;35.36;47.19
65396;HTU21D;52004;45.136;39.010;2023-07-31T12:47:09;35.29;47.09
65396;HTU21D;52004;45.136;39.010;2023-07-31T12:49:35;35.15;46.95
65396;HTU21D;52004;45.136;39.010;2023-07-31T12:52:01;35.01;47.09
65396;HTU21D;52004;45.136;39.010;2023-07-31T12:54:27;34.95;47.15
65396;HTU21D;52004;45.136;39.010;2023-07-31T12:56:53;34.94;47.15
65396;HTU21D;52004;45.136;39.010;2023-07-31T12:59:19;34.94;47.12
65396;HTU21D;52004;45.136;39.010;2023-07-31T13:01:45;34.94;47.12
65396;HTU21D;52004;45.136;39.010;2023-07-31T13:04:11;34.96;47.11
65396;HTU21D;52004;45.136;39.010;2023-07-31T13:06:37;34.98;47.09
65396;HTU21D;52004;45.136;39.010;2023-07-31T13:09:03;35.04;47.09
65396;HTU21D;52004;45.136;39.010;2023-07-31T13:11:29;35.07;47.05
65396;HTU21D;52004;45.136;39.010;2023-07-31T13:13:55;35.08;46.99
65396;HTU21D;52004;45.136;39.010;2023-07-31T13:16:21;35.08;46.92
65396;HTU21D;52004;45.136;39.010;2023-07-31T13:18:47;35.07;46.88
65396;HTU21D;52004;45.136;39.010;2023-07-31T13:21:13;35.04;46.81
65396;HTU21D;52004;45.136;39.010;2023-07-31T13:23:39;34.98;46.76
65396;HTU21D;52004;45.136;39.010;2023-07-31T13:26:05;34.93;46.75
65396;HTU21D;52004;45.136;39.010;2023-07-31T13:28:31;34.89;46.77
65396;HTU21D;52004;45.136;39.010;2023-07-31T13:30:57;34.82;46.73
65396;HTU21D;52004;45.136;39.010;2023-07-31T13:33:23;34.78;46.70
65396;HTU21D;52004;45.136;39.010;2023-07-31T13:35:48;34.75;46.76
65396;HTU21D;52004;45.136;39.010;2023-07-31T13:38:15;34.73;46.73
65396;HTU21D;52004;45.136;39.010;2023-07-31T13:40:41;34.70;46.79
65396;HTU21D;52004;45.136;39.010;2023-07-31T13:43:07;34.71;46.76
65396;HTU21D;52004;45.136;39.010;2023-07-31T13:45:33;34.71;46.73
65396;HTU21D;52004;45.136;39.010;2023-07-31T13:47:59;34.73;46.69
65396;HTU21D;52004;45.136;39.010;2023-07-31T13:50:25;34.70;46.62
65396;HTU21D;52004;45.136;39.010;2023-07-31T13:52:50;34.70;46.57
65396;HTU21D;52004;45.136;39.010;2023-07-31T13:55:16;34.67;46.52
65396;HTU21D;52004;45.136;39.010;2023-07-31T13:57:42;34.65;46.44
65396;HTU21D;52004;45.136;39.010;2023-07-31T14:00:09;34.60;46.43
65396;HTU21D;52004;45.136;39.010;2023-07-31T14:02:35;34.56;46.36
65396;HTU21D;52004;45.136;39.010;2023-07-31T14:05:01;34.54;46.42
65396;HTU21D;52004;45.136;39.010;2023-07-31T14:07:27;34.50;46.34
65396;HTU21D;52004;45.136;39.010;2023-07-31T14:09:53;34.45;46.36
65396;HTU21D;52004;45.136;39.010;2023-07-31T14:12:18;34.42;46.39
65396;HTU21D;52004;45.136;39.010;2023-07-31T14:14:44;34.38;46.41
65396;HTU21D;52004;45.136;39.010;2023-07-31T14:17:10;34.37;46.35
65396;HTU21D;52004;45.136;39.010;2023-07-31T14:19:36;34.34;46.35
65396;HTU21D;52004;45.136;39.010;2023-07-31T14:22:02;34.30;46.38
65396;HTU21D;52004;45.136;39.010;2023-07-31T14:24:28;34.26;46.30
65396;HTU21D;52004;45.136;39.010;2023-07-31T14:26:54;34.22;46.28
65396;HTU21D;52004;45.136;39.010;2023-07-31T14:29:19;34.17;46.30
65396;HTU21D;52004;45.136;39.010;2023-07-31T14:31:45;0.00;46.31
65396;HTU21D;52004;45.136;39.010;2023-07-31T14:34:11;34.08;46.33
65396;HTU21D;52004;45.136;39.010;2023-07-31T14:36:37;34.07;46.37
65396;HTU21D;52004;45.136;39.010;2023-07-31T14:39:03;34.05;46.32
65396;HTU21D;52004;45.136;39.010;2023-07-31T14:41:29;34.02;46.31
65396;HTU21D;52004;45.136;39.010;2023-07-31T14:43:55;33.97;46.33
65396;HTU21D;52004;45.136;39.010;2023-07-31T14:46:21;33.93;46.31
65396;HTU21D;52004;45.136;39.010;2023-07-31T14:48:47;33.91;46.34
65396;HTU21D;52004;45.136;39.010;2023-07-31T14:51:13;33.87;46.28
65396;HTU21D;52004;45.136;39.010;2023-07-31T14:53:39;33.82;46.35
65396;HTU21D;52004;45.136;39.010;2023-07-31T14:56:05;33.79;46.33
65396;HTU21D;52004;45.136;39.010;2023-07-31T14:58:31;33.74;46.25
65396;HTU21D;52004;45.136;39.010;2023-07-31T15:00:57;33.68;46.34
65396;HTU21D;52004;45.136;39.010;2023-07-31T15:03:23;33.63;46.32
65396;HTU21D;52004;45.136;39.010;2023-07-31T15:05:50;33.58;46.39
65396;HTU21D;52004;45.136;39.010;2023-07-31T15:08:16;33.55;46.43
65396;HTU21D;52004;45.136;39.010;2023-07-31T15:10:42;33.52;46.44
65396;HTU21D;52004;45.136;39.010;2023-07-31T15:13:08;0.00;46.44